createdAt,value
2022-12-31T00:06:59.944Z,100030.33
2022-12-31T00:22:17.204Z,100040.91
2022-12-31T00:37:19.954Z,100039.54
2022-12-31T00:52:22.466Z,100022.29
2022-12-31T01:07:25.264Z,100033.22
2022-12-31T01:22:27.937Z,100033.16
2022-12-31T01:37:30.362Z,100026.73
2022-12-31T01:52:40.828Z,100027.27
2022-12-31T02:07:44.798Z,100026.27
2022-12-31T02:23:29.084Z,100041.08
2022-12-31T02:38:41.351Z,100034.82
2022-12-31T02:53:57.905Z,100028.66
2022-12-31T03:09:14.219Z,100057.65
2022-12-31T03:24:35.283Z,100076.62
2022-12-31T03:39:37.806Z,100069.02
2022-12-31T03:54:54.830Z,100066.00
2022-12-31T04:09:57.816Z,100069.64
2022-12-31T04:25:15.180Z,100077.99
2022-12-31T04:40:17.793Z,100096.86
2022-12-31T04:55:20.120Z,100084.71
2022-12-31T05:10:22.946Z,100084.36
2022-12-31T05:25:25.597Z,100086.24
2022-12-31T05:40:28.903Z,100076.39
2022-12-31T05:55:31.362Z,100084.35
2022-12-31T06:10:33.978Z,100092.27
2022-12-31T06:25:39.594Z,100095.10
2022-12-31T06:40:42.335Z,100104.89
2022-12-31T06:55:45.223Z,100120.23
2022-12-31T07:11:13.638Z,100083.09
2022-12-31T07:26:43.981Z,100073.33
2022-12-31T07:42:02.611Z,100084.98
2022-12-31T07:57:05.654Z,100108.27
2022-12-31T08:12:09.151Z,100096.28
2022-12-31T08:28:14.024Z,100101.92
2022-12-31T08:43:41.297Z,100080.65
2022-12-31T08:59:12.130Z,100083.19
2022-12-31T09:14:35.187Z,100068.77
2022-12-31T09:30:07.157Z,100058.85
2022-12-31T09:46:12.450Z,100065.06
2022-12-31T10:01:56.157Z,100046.36
2022-12-31T10:17:53.606Z,100022.89
2022-12-31T10:33:33.264Z,100034.23
2022-12-31T10:49:39.329Z,100009.21
2022-12-31T11:05:11.356Z,99981.23
2022-12-31T11:20:59.817Z,99963.07
2022-12-31T11:36:40.358Z,99956.95
2022-12-31T11:52:11.667Z,99961.77
2022-12-31T12:07:16.157Z,99951.71
2022-12-31T12:22:25.325Z,99958.47
2022-12-31T12:37:34.827Z,99943.33
2022-12-31T12:53:17.834Z,99951.20
2022-12-31T13:08:59.906Z,99939.56
2022-12-31T13:24:31.349Z,99920.56
2022-12-31T13:40:01.392Z,99934.43
2022-12-31T13:55:30.333Z,99960.31
2022-12-31T14:10:54.791Z,99977.56
2022-12-31T14:26:06.542Z,99990.19
2022-12-31T14:41:22.381Z,99991.78
2022-12-31T14:56:43.216Z,100004.48
2022-12-31T15:12:07.599Z,100027.38
2022-12-31T15:27:38.272Z,100039.42
2022-12-31T15:42:54.960Z,100048.64
2022-12-31T15:58:23.287Z,100058.23
2022-12-31T16:13:29.663Z,100077.91
2022-12-31T16:28:51.840Z,100087.02
2022-12-31T16:43:56.307Z,100096.16
2022-12-31T16:59:55.953Z,100113.86
2022-12-31T17:15:05.391Z,100134.55
2022-12-31T17:30:36.021Z,100143.20
2022-12-31T17:45:49.313Z,100152.99
2022-12-31T18:00:54.031Z,100173.89
2022-12-31T18:16:11.155Z,100177.17
2022-12-31T18:31:27.660Z,100172.75
2022-12-31T18:46:44.789Z,100153.09
2022-12-31T19:02:01.939Z,100154.97
2022-12-31T19:17:21.119Z,100158.23
2022-12-31T19:32:23.801Z,100172.45
2022-12-31T19:47:26.272Z,100178.63
2022-12-31T20:02:29.236Z,100182.05
2022-12-31T20:17:32.188Z,100172.49
2022-12-31T20:32:36.268Z,100176.93
2022-12-31T20:47:38.961Z,100186.65
2022-12-31T21:02:43.515Z,100191.85
2022-12-31T21:17:49.535Z,100206.27
